sensor_id;sensor_type;location;lat;lon;timestamp;P1;durP1;ratioP1;P2;durP2;ratioP2
1837;SDS011;918;50.796;6.772;2022-10-24T00:00:14;5.03;;;4.00;;
1837;SDS011;918;50.796;6.772;2022-10-24T00:02:40;5.93;;;3.30;;
1837;SDS011;918;50.796;6.772;2022-10-24T00:05:06;8.50;;;4.50;;
1837;SDS011;918;50.796;6.772;2022-10-24T00:07:32;9.63;;;4.10;;
1837;SDS011;918;50.796;6.772;2022-10-24T00:09:57;8.23;;;4.40;;
1837;SDS011;918;50.796;6.772;2022-10-24T00:12:22;5.90;;;4.90;;
1837;SDS011;918;50.796;6.772;2022-10-24T00:14:47;6.07;;;3.80;;
1837;SDS011;918;50.796;6.772;2022-10-24T00:17:13;8.13;;;4.83;;
1837;SDS011;918;50.796;6.772;2022-10-24T00:19:38;6.20;;;4.20;;
1837;SDS011;918;50.796;6.772;2022-10-24T00:22:03;9.47;;;4.47;;
1837;SDS011;918;50.796;6.772;2022-10-24T00:24:29;5.00;;;3.90;;
1837;SDS011;918;50.796;6.772;2022-10-24T00:26:54;5.90;;;4.57;;
1837;SDS011;918;50.796;6.772;2022-10-24T00:29:19;7.03;;;4.20;;
1837;SDS011;918;50.796;6.772;2022-10-24T00:31:44;5.37;;;4.00;;
1837;SDS011;918;50.796;6.772;2022-10-24T00:34:10;4.80;;;3.83;;
1837;SDS011;918;50.796;6.772;2022-10-24T00:36:35;7.57;;;4.47;;
1837;SDS011;918;50.796;6.772;2022-10-24T00:39:01;5.50;;;4.60;;
1837;SDS011;918;50.796;6.772;2022-10-24T00:41:27;8.30;;;4.13;;
1837;SDS011;918;50.796;6.772;2022-10-24T00:46:54;13.63;;;4.70;;
1837;SDS011;918;50.796;6.772;2022-10-24T00:49:23;6.20;;;4.40;;
1837;SDS011;918;50.796;6.772;2022-10-24T00:52:09;5.30;;;4.23;;
1837;SDS011;918;50.796;6.772;2022-10-24T00:54:35;7.50;;;4.17;;
1837;SDS011;918;50.796;6.772;2022-10-24T00:57:13;7.20;;;4.77;;
1837;SDS011;918;50.796;6.772;2022-10-24T00:59:45;8.67;;;4.47;;
1837;SDS011;918;50.796;6.772;2022-10-24T01:02:13;5.30;;;3.63;;
1837;SDS011;918;50.796;6.772;2022-10-24T01:04:39;12.73;;;3.97;;
1837;SDS011;918;50.796;6.772;2022-10-24T01:07:09;8.03;;;5.03;;
1837;SDS011;918;50.796;6.772;2022-10-24T01:17:42;5.33;;;4.03;;
1837;SDS011;918;50.796;6.772;2022-10-24T01:22:52;8.63;;;4.00;;
1837;SDS011;918;50.796;6.772;2022-10-24T01:25:39;7.20;;;3.73;;
1837;SDS011;918;50.796;6.772;2022-10-24T01:28:29;9.37;;;4.10;;
1837;SDS011;918;50.796;6.772;2022-10-24T01:31:00;4.50;;;3.73;;
1837;SDS011;918;50.796;6.772;2022-10-24T01:33:33;3.80;;;3.07;;
1837;SDS011;918;50.796;6.772;2022-10-24T01:36:06;7.00;;;3.70;;
1837;SDS011;918;50.796;6.772;2022-10-24T01:38:34;6.37;;;3.60;;
1837;SDS011;918;50.796;6.772;2022-10-24T01:41:20;8.27;;;5.43;;
1837;SDS011;918;50.796;6.772;2022-10-24T01:44:01;8.53;;;3.83;;
1837;SDS011;918;50.796;6.772;2022-10-24T01:46:31;3.93;;;3.37;;
1837;SDS011;918;50.796;6.772;2022-10-24T01:49:01;5.40;;;3.80;;
1837;SDS011;918;50.796;6.772;2022-10-24T01:51:29;6.07;;;4.10;;
1837;SDS011;918;50.796;6.772;2022-10-24T01:53:56;5.30;;;3.50;;
1837;SDS011;918;50.796;6.772;2022-10-24T01:56:23;4.23;;;3.40;;
1837;SDS011;918;50.796;6.772;2022-10-24T01:58:49;5.00;;;3.63;;
1837;SDS011;918;50.796;6.772;2022-10-24T02:01:15;5.10;;;4.10;;
1837;SDS011;918;50.796;6.772;2022-10-24T02:03:49;6.50;;;4.03;;
1837;SDS011;918;50.796;6.772;2022-10-24T02:06:31;6.30;;;4.17;;
1837;SDS011;918;50.796;6.772;2022-10-24T02:09:00;5.50;;;3.60;;
1837;SDS011;918;50.796;6.772;2022-10-24T02:11:29;4.47;;;3.10;;
1837;SDS011;918;50.796;6.772;2022-10-24T02:16:31;9.40;;;3.50;;
1837;SDS011;918;50.796;6.772;2022-10-24T02:18:57;7.43;;;4.30;;
1837;SDS011;918;50.796;6.772;2022-10-24T02:21:44;7.13;;;4.00;;
1837;SDS011;918;50.796;6.772;2022-10-24T02:24:23;6.77;;;3.47;;
1837;SDS011;918;50.796;6.772;2022-10-24T02:29:30;6.20;;;3.90;;
1837;SDS011;918;50.796;6.772;2022-10-24T02:31:57;4.20;;;3.33;;
1837;SDS011;918;50.796;6.772;2022-10-24T02:34:24;5.63;;;3.60;;
1837;SDS011;918;50.796;6.772;2022-10-24T02:36:54;5.93;;;3.60;;
1837;SDS011;918;50.796;6.772;2022-10-24T02:39:19;5.87;;;3.53;;
1837;SDS011;918;50.796;6.772;2022-10-24T02:41:46;5.27;;;3.57;;
1837;SDS011;918;50.796;6.772;2022-10-24T02:44:12;4.57;;;4.10;;
1837;SDS011;918;50.796;6.772;2022-10-24T02:46:39;4.07;;;3.30;;
1837;SDS011;918;50.796;6.772;2022-10-24T02:49:04;6.80;;;3.93;;
1837;SDS011;918;50.796;6.772;2022-10-24T02:51:31;8.13;;;3.50;;
1837;SDS011;918;50.796;6.772;2022-10-24T02:53:59;4.50;;;2.90;;
1837;SDS011;918;50.796;6.772;2022-10-24T02:56:25;8.27;;;3.43;;
1837;SDS011;918;50.796;6.772;2022-10-24T02:58:51;7.40;;;3.20;;
1837;SDS011;918;50.796;6.772;2022-10-24T03:01:16;6.47;;;3.53;;
1837;SDS011;918;50.796;6.772;2022-10-24T03:03:42;7.40;;;2.80;;
1837;SDS011;918;50.796;6.772;2022-10-24T03:06:07;5.33;;;3.20;;
1837;SDS011;918;50.796;6.772;2022-10-24T03:08:32;4.07;;;2.97;;
1837;SDS011;918;50.796;6.772;2022-10-24T03:10:57;6.53;;;2.70;;
1837;SDS011;918;50.796;6.772;2022-10-24T03:13:23;4.27;;;2.50;;
1837;SDS011;918;50.796;6.772;2022-10-24T03:15:48;5.73;;;2.53;;
1837;SDS011;918;50.796;6.772;2022-10-24T03:18:13;3.70;;;2.30;;
1837;SDS011;918;50.796;6.772;2022-10-24T03:20:38;3.33;;;2.60;;
1837;SDS011;918;50.796;6.772;2022-10-24T03:23:04;7.47;;;2.77;;
1837;SDS011;918;50.796;6.772;2022-10-24T03:25:30;4.47;;;2.27;;
1837;SDS011;918;50.796;6.772;2022-10-24T03:27:55;4.13;;;2.10;;
1837;SDS011;918;50.796;6.772;2022-10-24T03:30:20;2.80;;;2.30;;
1837;SDS011;918;50.796;6.772;2022-10-24T03:32:45;3.43;;;2.00;;
1837;SDS011;918;50.796;6.772;2022-10-24T03:35:11;5.70;;;2.10;;
1837;SDS011;918;50.796;6.772;2022-10-24T03:37:36;3.07;;;1.80;;
1837;SDS011;918;50.796;6.772;2022-10-24T03:40:01;3.80;;;1.73;;
1837;SDS011;918;50.796;6.772;2022-10-24T03:42:26;2.07;;;1.83;;
1837;SDS011;918;50.796;6.772;2022-10-24T03:44:52;3.20;;;2.10;;
1837;SDS011;918;50.796;6.772;2022-10-24T03:47:17;3.50;;;2.23;;
1837;SDS011;918;50.796;6.772;2022-10-24T03:49:43;2.70;;;1.87;;
1837;SDS011;918;50.796;6.772;2022-10-24T03:52:08;4.93;;;2.00;;
1837;SDS011;918;50.796;6.772;2022-10-24T03:54:34;4.77;;;2.13;;
1837;SDS011;918;50.796;6.772;2022-10-24T03:56:59;2.63;;;1.70;;
1837;SDS011;918;50.796;6.772;2022-10-24T03:59:24;4.07;;;1.53;;
1837;SDS011;918;50.796;6.772;2022-10-24T04:01:50;3.53;;;1.67;;
1837;SDS011;918;50.796;6.772;2022-10-24T04:04:15;1.80;;;1.50;;
1837;SDS011;918;50.796;6.772;2022-10-24T04:06:40;3.03;;;2.10;;
1837;SDS011;918;50.796;6.772;2022-10-24T04:09:06;4.10;;;1.70;;
1837;SDS011;918;50.796;6.772;2022-10-24T04:11:31;1.87;;;1.50;;
1837;SDS011;918;50.796;6.772;2022-10-24T04:13:57;3.87;;;2.03;;
1837;SDS011;918;50.796;6.772;2022-10-24T04:16:24;1.73;;;1.60;;
1837;SDS011;918;50.796;6.772;2022-10-24T04:18:50;5.03;;;2.00;;
1837;SDS011;918;50.796;6.772;2022-10-24T04:21:16;2.03;;;1.67;;
1837;SDS011;918;50.796;6.772;2022-10-24T04:23:41;1.97;;;1.70;;
1837;SDS011;918;50.796;6.772;2022-10-24T04:26:08;1.43;;;1.33;;
1837;SDS011;918;50.796;6.772;2022-10-24T04:28:34;3.27;;;1.50;;
1837;SDS011;918;50.796;6.772;2022-10-24T04:30:59;2.40;;;1.77;;
1837;SDS011;918;50.796;6.772;2022-10-24T04:33:25;5.60;;;2.20;;
1837;SDS011;918;50.796;6.772;2022-10-24T04:35:50;1.70;;;1.60;;
1837;SDS011;918;50.796;6.772;2022-10-24T04:38:16;4.40;;;2.07;;
1837;SDS011;918;50.796;6.772;2022-10-24T04:40:49;2.37;;;1.70;;
1837;SDS011;918;50.796;6.772;2022-10-24T04:43:16;2.47;;;1.93;;
1837;SDS011;918;50.796;6.772;2022-10-24T04:45:42;2.00;;;1.63;;
1837;SDS011;918;50.796;6.772;2022-10-24T04:48:07;2.50;;;1.83;;
1837;SDS011;918;50.796;6.772;2022-10-24T04:50:33;2.60;;;1.57;;
1837;SDS011;918;50.796;6.772;2022-10-24T04:52:58;3.33;;;1.90;;
1837;SDS011;918;50.796;6.772;2022-10-24T04:55:23;4.80;;;1.80;;
1837;SDS011;918;50.796;6.772;2022-10-24T04:57:49;3.10;;;1.47;;
1837;SDS011;918;50.796;6.772;2022-10-24T05:00:14;4.97;;;1.90;;
1837;SDS011;918;50.796;6.772;2022-10-24T05:02:40;3.87;;;1.77;;
1837;SDS011;918;50.796;6.772;2022-10-24T05:05:05;7.30;;;1.80;;
1837;SDS011;918;50.796;6.772;2022-10-24T05:07:30;5.93;;;1.80;;
1837;SDS011;918;50.796;6.772;2022-10-24T05:09:56;3.00;;;1.50;;
1837;SDS011;918;50.796;6.772;2022-10-24T05:12:21;3.50;;;1.80;;
1837;SDS011;918;50.796;6.772;2022-10-24T05:14:46;2.70;;;1.73;;
1837;SDS011;918;50.796;6.772;2022-10-24T05:17:12;3.60;;;1.60;;
1837;SDS011;918;50.796;6.772;2022-10-24T05:19:38;3.70;;;1.80;;
1837;SDS011;918;50.796;6.772;2022-10-24T05:22:03;2.47;;;2.27;;
1837;SDS011;918;50.796;6.772;2022-10-24T05:24:28;3.83;;;3.30;;
1837;SDS011;918;50.796;6.772;2022-10-24T05:26:54;3.13;;;2.20;;
1837;SDS011;918;50.796;6.772;2022-10-24T05:29:19;2.40;;;2.07;;
1837;SDS011;918;50.796;6.772;2022-10-24T05:31:44;5.00;;;2.27;;
1837;SDS011;918;50.796;6.772;2022-10-24T05:34:10;2.63;;;2.33;;
1837;SDS011;918;50.796;6.772;2022-10-24T05:36:35;3.63;;;2.20;;
1837;SDS011;918;50.796;6.772;2022-10-24T05:39:00;4.13;;;2.30;;
1837;SDS011;918;50.796;6.772;2022-10-24T05:41:25;3.63;;;2.10;;
1837;SDS011;918;50.796;6.772;2022-10-24T05:43:50;5.83;;;2.47;;
1837;SDS011;918;50.796;6.772;2022-10-24T05:46:16;2.17;;;1.90;;
1837;SDS011;918;50.796;6.772;2022-10-24T05:48:41;4.33;;;1.67;;
1837;SDS011;918;50.796;6.772;2022-10-24T05:51:06;3.37;;;2.07;;
1837;SDS011;918;50.796;6.772;2022-10-24T05:53:31;3.53;;;2.03;;
1837;SDS011;918;50.796;6.772;2022-10-24T05:55:57;3.27;;;1.60;;
1837;SDS011;918;50.796;6.772;2022-10-24T05:58:22;3.03;;;2.00;;
1837;SDS011;918;50.796;6.772;2022-10-24T06:00:48;5.30;;;1.97;;
1837;SDS011;918;50.796;6.772;2022-10-24T06:03:13;4.80;;;1.90;;
1837;SDS011;918;50.796;6.772;2022-10-24T06:05:39;3.30;;;1.83;;
1837;SDS011;918;50.796;6.772;2022-10-24T06:08:04;2.93;;;1.60;;
1837;SDS011;918;50.796;6.772;2022-10-24T06:10:29;3.17;;;1.60;;
1837;SDS011;918;50.796;6.772;2022-10-24T06:12:54;3.70;;;1.83;;
1837;SDS011;918;50.796;6.772;2022-10-24T06:15:20;2.50;;;1.50;;
1837;SDS011;918;50.796;6.772;2022-10-24T06:17:45;4.03;;;1.40;;
1837;SDS011;918;50.796;6.772;2022-10-24T06:20:10;1.70;;;1.13;;
1837;SDS011;918;50.796;6.772;2022-10-24T06:22:36;4.90;;;1.60;;
1837;SDS011;918;50.796;6.772;2022-10-24T06:25:01;2.30;;;1.43;;
1837;SDS011;918;50.796;6.772;2022-10-24T06:27:26;2.20;;;1.53;;
1837;SDS011;918;50.796;6.772;2022-10-24T06:29:52;2.43;;;1.90;;
1837;SDS011;918;50.796;6.772;2022-10-24T06:32:17;4.90;;;1.80;;
1837;SDS011;918;50.796;6.772;2022-10-24T06:34:42;1.60;;;1.50;;
1837;SDS011;918;50.796;6.772;2022-10-24T06:37:08;2.20;;;1.47;;
1837;SDS011;918;50.796;6.772;2022-10-24T06:39:33;4.60;;;1.30;;
1837;SDS011;918;50.796;6.772;2022-10-24T06:42:01;3.47;;;2.10;;
1837;SDS011;918;50.796;6.772;2022-10-24T06:44:26;3.47;;;2.13;;
1837;SDS011;918;50.796;6.772;2022-10-24T06:46:51;5.23;;;3.20;;
1837;SDS011;918;50.796;6.772;2022-10-24T06:49:17;5.10;;;1.73;;
1837;SDS011;918;50.796;6.772;2022-10-24T06:51:42;1.97;;;1.50;;
1837;SDS011;918;50.796;6.772;2022-10-24T06:54:07;4.60;;;1.77;;
1837;SDS011;918;50.796;6.772;2022-10-24T06:56:33;1.93;;;1.83;;
1837;SDS011;918;50.796;6.772;2022-10-24T06:58:58;2.60;;;1.60;;
1837;SDS011;918;50.796;6.772;2022-10-24T07:01:24;6.00;;;1.93;;
1837;SDS011;918;50.796;6.772;2022-10-24T07:03:51;5.33;;;2.30;;
1837;SDS011;918;50.796;6.772;2022-10-24T07:06:21;4.70;;;2.40;;
1837;SDS011;918;50.796;6.772;2022-10-24T07:08:49;2.80;;;2.03;;
1837;SDS011;918;50.796;6.772;2022-10-24T07:11:15;10.40;;;2.10;;
1837;SDS011;918;50.796;6.772;2022-10-24T07:13:41;2.53;;;1.70;;
1837;SDS011;918;50.796;6.772;2022-10-24T07:16:06;4.90;;;1.70;;
1837;SDS011;918;50.796;6.772;2022-10-24T07:18:32;3.00;;;1.70;;
1837;SDS011;918;50.796;6.772;2022-10-24T07:21:01;3.03;;;1.23;;
1837;SDS011;918;50.796;6.772;2022-10-24T07:23:31;2.90;;;1.50;;
1837;SDS011;918;50.796;6.772;2022-10-24T07:26:04;7.00;;;2.13;;
1837;SDS011;918;50.796;6.772;2022-10-24T07:28:31;3.80;;;2.30;;
1837;SDS011;918;50.796;6.772;2022-10-24T07:30:56;6.90;;;2.23;;
1837;SDS011;918;50.796;6.772;2022-10-24T07:33:22;3.00;;;1.60;;
1837;SDS011;918;50.796;6.772;2022-10-24T07:35:47;6.10;;;1.50;;
1837;SDS011;918;50.796;6.772;2022-10-24T07:38:12;3.23;;;1.43;;
1837;SDS011;918;50.796;6.772;2022-10-24T07:40:38;4.97;;;1.67;;
1837;SDS011;918;50.796;6.772;2022-10-24T07:43:03;1.87;;;1.70;;
1837;SDS011;918;50.796;6.772;2022-10-24T07:45:28;7.30;;;4.27;;
1837;SDS011;918;50.796;6.772;2022-10-24T07:47:56;4.70;;;2.33;;
1837;SDS011;918;50.796;6.772;2022-10-24T07:50:22;4.23;;;1.80;;
1837;SDS011;918;50.796;6.772;2022-10-24T07:52:47;1.90;;;1.23;;
1837;SDS011;918;50.796;6.772;2022-10-24T07:55:12;5.27;;;1.20;;
1837;SDS011;918;50.796;6.772;2022-10-24T07:57:37;4.20;;;1.87;;
1837;SDS011;918;50.796;6.772;2022-10-24T08:00:03;4.97;;;1.57;;
1837;SDS011;918;50.796;6.772;2022-10-24T08:02:29;3.77;;;1.67;;
1837;SDS011;918;50.796;6.772;2022-10-24T08:04:54;2.60;;;1.87;;
1837;SDS011;918;50.796;6.772;2022-10-24T08:07:19;2.60;;;1.23;;
1837;SDS011;918;50.796;6.772;2022-10-24T08:09:46;5.00;;;1.40;;
1837;SDS011;918;50.796;6.772;2022-10-24T08:12:11;2.90;;;1.37;;
1837;SDS011;918;50.796;6.772;2022-10-24T08:14:37;5.67;;;1.77;;
1837;SDS011;918;50.796;6.772;2022-10-24T08:17:04;2.30;;;1.30;;
1837;SDS011;918;50.796;6.772;2022-10-24T08:19:30;2.63;;;1.40;;
1837;SDS011;918;50.796;6.772;2022-10-24T08:21:55;4.30;;;3.13;;
1837;SDS011;918;50.796;6.772;2022-10-24T08:24:21;2.73;;;1.53;;
1837;SDS011;918;50.796;6.772;2022-10-24T08:26:46;3.10;;;1.37;;
1837;SDS011;918;50.796;6.772;2022-10-24T08:29:12;3.97;;;1.53;;
1837;SDS011;918;50.796;6.772;2022-10-24T08:31:39;4.27;;;1.63;;
1837;SDS011;918;50.796;6.772;2022-10-24T08:34:04;3.43;;;1.80;;
1837;SDS011;918;50.796;6.772;2022-10-24T08:36:30;2.80;;;1.73;;
1837;SDS011;918;50.796;6.772;2022-10-24T08:38:58;5.13;;;1.30;;
1837;SDS011;918;50.796;6.772;2022-10-24T08:41:31;2.20;;;1.30;;
1837;SDS011;918;50.796;6.772;2022-10-24T08:49:53;5.30;;;2.07;;
1837;SDS011;918;50.796;6.772;2022-10-24T08:54:57;4.70;;;1.70;;
1837;SDS011;918;50.796;6.772;2022-10-24T08:57:25;2.07;;;1.40;;
1837;SDS011;918;50.796;6.772;2022-10-24T08:59:53;4.37;;;1.47;;
1837;SDS011;918;50.796;6.772;2022-10-24T09:02:23;4.07;;;1.70;;
1837;SDS011;918;50.796;6.772;2022-10-24T09:04:54;3.77;;;1.50;;
1837;SDS011;918;50.796;6.772;2022-10-24T09:07:21;4.97;;;1.60;;
1837;SDS011;918;50.796;6.772;2022-10-24T09:09:48;5.70;;;1.80;;
1837;SDS011;918;50.796;6.772;2022-10-24T09:12:16;2.20;;;1.60;;
1837;SDS011;918;50.796;6.772;2022-10-24T09:14:43;4.67;;;2.10;;
1837;SDS011;918;50.796;6.772;2022-10-24T09:19:51;5.47;;;2.20;;
1837;SDS011;918;50.796;6.772;2022-10-24T09:22:18;4.57;;;1.83;;
1837;SDS011;918;50.796;6.772;2022-10-24T09:24:46;3.07;;;1.70;;
1837;SDS011;918;50.796;6.772;2022-10-24T09:27:48;8.07;;;1.93;;
1837;SDS011;918;50.796;6.772;2022-10-24T09:30:10;4.83;;;1.70;;
1837;SDS011;918;50.796;6.772;2022-10-24T09:32:40;7.13;;;1.50;;
1837;SDS011;918;50.796;6.772;2022-10-24T09:35:10;3.57;;;1.90;;
1837;SDS011;918;50.796;6.772;2022-10-24T09:37:40;4.50;;;2.10;;
1837;SDS011;918;50.796;6.772;2022-10-24T09:42:46;4.60;;;1.70;;
1837;SDS011;918;50.796;6.772;2022-10-24T09:45:37;2.67;;;1.10;;
1837;SDS011;918;50.796;6.772;2022-10-24T09:50:49;6.07;;;1.73;;
1837;SDS011;918;50.796;6.772;2022-10-24T09:53:19;3.30;;;1.37;;
1837;SDS011;918;50.796;6.772;2022-10-24T09:56:00;5.53;;;1.83;;
1837;SDS011;918;50.796;6.772;2022-10-24T09:58:36;3.67;;;1.30;;
1837;SDS011;918;50.796;6.772;2022-10-24T10:01:05;3.80;;;1.47;;
1837;SDS011;918;50.796;6.772;2022-10-24T10:03:43;3.67;;;1.43;;
1837;SDS011;918;50.796;6.772;2022-10-24T10:06:26;2.43;;;1.43;;
1837;SDS011;918;50.796;6.772;2022-10-24T10:08:55;3.93;;;1.23;;
1837;SDS011;918;50.796;6.772;2022-10-24T10:11:31;3.13;;;1.57;;
1837;SDS011;918;50.796;6.772;2022-10-24T10:13:58;5.23;;;1.50;;
1837;SDS011;918;50.796;6.772;2022-10-24T10:16:29;1.87;;;1.37;;
1837;SDS011;918;50.796;6.772;2022-10-24T10:19:18;5.23;;;1.60;;
1837;SDS011;918;50.796;6.772;2022-10-24T10:21:51;3.03;;;1.50;;
1837;SDS011;918;50.796;6.772;2022-10-24T10:24:51;5.43;;;1.50;;
1837;SDS011;918;50.796;6.772;2022-10-24T10:32:46;2.67;;;1.50;;
1837;SDS011;918;50.796;6.772;2022-10-24T10:35:42;4.20;;;1.50;;
1837;SDS011;918;50.796;6.772;2022-10-24T10:40:44;3.13;;;1.20;;
1837;SDS011;918;50.796;6.772;2022-10-24T10:48:56;6.93;;;1.70;;
1837;SDS011;918;50.796;6.772;2022-10-24T10:51:46;2.67;;;0.97;;
1837;SDS011;918;50.796;6.772;2022-10-24T10:59:40;3.33;;;1.33;;
1837;SDS011;918;50.796;6.772;2022-10-24T11:05:13;3.07;;;1.40;;
1837;SDS011;918;50.796;6.772;2022-10-24T11:07:47;7.53;;;1.60;;
1837;SDS011;918;50.796;6.772;2022-10-24T11:10:19;3.97;;;2.73;;
1837;SDS011;918;50.796;6.772;2022-10-24T11:12:47;5.33;;;1.33;;
1837;SDS011;918;50.796;6.772;2022-10-24T11:15:32;2.80;;;1.30;;
1837;SDS011;918;50.796;6.772;2022-10-24T11:21:05;3.23;;;1.00;;
1837;SDS011;918;50.796;6.772;2022-10-24T11:23:36;2.93;;;1.53;;
1837;SDS011;918;50.796;6.772;2022-10-24T11:26:08;3.63;;;1.67;;
1837;SDS011;918;50.796;6.772;2022-10-24T11:28:57;5.13;;;1.40;;
1837;SDS011;918;50.796;6.772;2022-10-24T11:31:41;6.50;;;1.97;;
1837;SDS011;918;50.796;6.772;2022-10-24T11:37:02;1.80;;;1.20;;
1837;SDS011;918;50.796;6.772;2022-10-24T11:39:32;4.80;;;2.07;;
1837;SDS011;918;50.796;6.772;2022-10-24T11:47:45;3.83;;;1.33;;
1837;SDS011;918;50.796;6.772;2022-10-24T11:50:04;4.53;;;1.50;;
1837;SDS011;918;50.796;6.772;2022-10-24T11:52:37;4.53;;;1.67;;
1837;SDS011;918;50.796;6.772;2022-10-24T11:57:43;3.53;;;1.70;;
1837;SDS011;918;50.796;6.772;2022-10-24T12:00:20;4.63;;;1.67;;
1837;SDS011;918;50.796;6.772;2022-10-24T12:19:17;3.67;;;1.67;;
1837;SDS011;918;50.796;6.772;2022-10-24T12:21:45;3.87;;;1.73;;
1837;SDS011;918;50.796;6.772;2022-10-24T12:24:27;4.43;;;1.20;;
1837;SDS011;918;50.796;6.772;2022-10-24T12:27:04;3.73;;;1.67;;
1837;SDS011;918;50.796;6.772;2022-10-24T12:29:31;4.40;;;1.97;;
1837;SDS011;918;50.796;6.772;2022-10-24T12:31:58;3.17;;;1.10;;
1837;SDS011;918;50.796;6.772;2022-10-24T12:34:46;2.23;;;1.50;;
1837;SDS011;918;50.796;6.772;2022-10-24T12:39:55;3.20;;;2.27;;
1837;SDS011;918;50.796;6.772;2022-10-24T12:44:46;3.53;;;1.30;;
1837;SDS011;918;50.796;6.772;2022-10-24T12:55:27;4.70;;;1.50;;
1837;SDS011;918;50.796;6.772;2022-10-24T12:58:03;5.30;;;1.67;;
1837;SDS011;918;50.796;6.772;2022-10-24T13:00:43;3.47;;;1.30;;
1837;SDS011;918;50.796;6.772;2022-10-24T13:09:22;5.13;;;1.90;;
1837;SDS011;918;50.796;6.772;2022-10-24T13:17:25;3.57;;;1.20;;
1837;SDS011;918;50.796;6.772;2022-10-24T13:20:05;5.57;;;1.57;;
1837;SDS011;918;50.796;6.772;2022-10-24T13:22:41;2.97;;;1.07;;
1837;SDS011;918;50.796;6.772;2022-10-24T13:30:43;4.67;;;1.60;;
1837;SDS011;918;50.796;6.772;2022-10-24T13:35:54;2.60;;;1.30;;
1837;SDS011;918;50.796;6.772;2022-10-24T13:39:00;2.10;;;1.10;;
1837;SDS011;918;50.796;6.772;2022-10-24T13:41:35;4.70;;;1.73;;
1837;SDS011;918;50.796;6.772;2022-10-24T13:44:45;5.50;;;1.30;;
1837;SDS011;918;50.796;6.772;2022-10-24T13:46:55;1.30;;;1.07;;
1837;SDS011;918;50.796;6.772;2022-10-24T13:49:30;4.03;;;1.53;;
1837;SDS011;918;50.796;6.772;2022-10-24T13:52:06;5.33;;;1.60;;
1837;SDS011;918;50.796;6.772;2022-10-24T13:54:57;4.93;;;1.23;;
1837;SDS011;918;50.796;6.772;2022-10-24T13:57:32;2.97;;;1.47;;
1837;SDS011;918;50.796;6.772;2022-10-24T14:00:01;2.47;;;1.20;;
1837;SDS011;918;50.796;6.772;2022-10-24T14:02:32;3.33;;;1.03;;
1837;SDS011;918;50.796;6.772;2022-10-24T14:05:03;1.50;;;0.90;;
1837;SDS011;918;50.796;6.772;2022-10-24T14:07:29;3.23;;;1.30;;
1837;SDS011;918;50.796;6.772;2022-10-24T14:09:58;1.73;;;1.20;;
1837;SDS011;918;50.796;6.772;2022-10-24T14:12:29;2.00;;;1.00;;
1837;SDS011;918;50.796;6.772;2022-10-24T14:14:55;1.80;;;1.10;;
1837;SDS011;918;50.796;6.772;2022-10-24T14:19:57;7.50;;;2.00;;
1837;SDS011;918;50.796;6.772;2022-10-24T14:22:28;3.40;;;1.50;;
1837;SDS011;918;50.796;6.772;2022-10-24T14:24:59;2.07;;;1.33;;
1837;SDS011;918;50.796;6.772;2022-10-24T14:27:24;2.80;;;1.33;;
1837;SDS011;918;50.796;6.772;2022-10-24T14:29:56;5.47;;;1.73;;
1837;SDS011;918;50.796;6.772;2022-10-24T14:32:26;5.23;;;1.37;;
1837;SDS011;918;50.796;6.772;2022-10-24T14:34:53;4.30;;;1.43;;
1837;SDS011;918;50.796;6.772;2022-10-24T14:37:24;2.87;;;1.40;;
1837;SDS011;918;50.796;6.772;2022-10-24T14:39:54;2.43;;;1.33;;
1837;SDS011;918;50.796;6.772;2022-10-24T14:42:20;2.70;;;1.30;;
1837;SDS011;918;50.796;6.772;2022-10-24T14:44:46;5.20;;;1.60;;
1837;SDS011;918;50.796;6.772;2022-10-24T14:47:34;2.60;;;1.23;;
1837;SDS011;918;50.796;6.772;2022-10-24T14:50:31;4.07;;;1.90;;
1837;SDS011;918;50.796;6.772;2022-10-24T14:52:57;3.43;;;1.00;;
1837;SDS011;918;50.796;6.772;2022-10-24T14:55:24;2.47;;;1.40;;
1837;SDS011;918;50.796;6.772;2022-10-24T14:57:50;1.80;;;1.27;;
1837;SDS011;918;50.796;6.772;2022-10-24T15:00:27;3.87;;;1.50;;
1837;SDS011;918;50.796;6.772;2022-10-24T15:02:59;4.17;;;1.90;;
1837;SDS011;918;50.796;6.772;2022-10-24T15:05:26;2.97;;;1.20;;
1837;SDS011;918;50.796;6.772;2022-10-24T15:07:59;2.90;;;1.70;;
1837;SDS011;918;50.796;6.772;2022-10-24T15:10:39;4.40;;;1.77;;
1837;SDS011;918;50.796;6.772;2022-10-24T15:18:23;5.63;;;1.60;;
1837;SDS011;918;50.796;6.772;2022-10-24T15:21:01;3.07;;;1.60;;
1837;SDS011;918;50.796;6.772;2022-10-24T15:23:30;3.23;;;1.40;;
1837;SDS011;918;50.796;6.772;2022-10-24T15:25:57;5.30;;;2.13;;
1837;SDS011;918;50.796;6.772;2022-10-24T15:31:12;3.57;;;1.80;;
1837;SDS011;918;50.796;6.772;2022-10-24T15:33:39;2.93;;;1.60;;
1837;SDS011;918;50.796;6.772;2022-10-24T15:36:05;2.20;;;1.80;;
1837;SDS011;918;50.796;6.772;2022-10-24T15:38:30;3.67;;;1.47;;
1837;SDS011;918;50.796;6.772;2022-10-24T15:40:56;5.37;;;2.53;;
1837;SDS011;918;50.796;6.772;2022-10-24T15:43:22;7.17;;;1.90;;
1837;SDS011;918;50.796;6.772;2022-10-24T15:45:48;5.33;;;1.90;;
1837;SDS011;918;50.796;6.772;2022-10-24T15:48:14;3.60;;;1.83;;
1837;SDS011;918;50.796;6.772;2022-10-24T15:50:43;5.67;;;2.10;;
1837;SDS011;918;50.796;6.772;2022-10-24T15:53:13;7.00;;;1.90;;
1837;SDS011;918;50.796;6.772;2022-10-24T15:55:43;3.53;;;1.93;;
1837;SDS011;918;50.796;6.772;2022-10-24T15:58:10;6.70;;;2.43;;
1837;SDS011;918;50.796;6.772;2022-10-24T16:00:36;5.40;;;2.10;;
1837;SDS011;918;50.796;6.772;2022-10-24T16:03:02;5.70;;;2.20;;
1837;SDS011;918;50.796;6.772;2022-10-24T16:05:34;4.80;;;2.83;;
1837;SDS011;918;50.796;6.772;2022-10-24T16:08:04;5.67;;;2.20;;
1837;SDS011;918;50.796;6.772;2022-10-24T16:10:30;3.53;;;2.13;;
1837;SDS011;918;50.796;6.772;2022-10-24T16:12:55;7.57;;;2.03;;
1837;SDS011;918;50.796;6.772;2022-10-24T16:15:22;3.00;;;2.10;;
1837;SDS011;918;50.796;6.772;2022-10-24T16:17:51;3.20;;;2.10;;
1837;SDS011;918;50.796;6.772;2022-10-24T16:20:17;7.10;;;2.00;;
1837;SDS011;918;50.796;6.772;2022-10-24T16:22:43;3.33;;;1.87;;
1837;SDS011;918;50.796;6.772;2022-10-24T16:25:20;7.93;;;2.47;;
1837;SDS011;918;50.796;6.772;2022-10-24T16:27:46;5.13;;;2.30;;
1837;SDS011;918;50.796;6.772;2022-10-24T16:30:12;3.93;;;2.60;;
1837;SDS011;918;50.796;6.772;2022-10-24T16:32:39;6.90;;;2.60;;
1837;SDS011;918;50.796;6.772;2022-10-24T16:35:05;5.47;;;2.20;;
1837;SDS011;918;50.796;6.772;2022-10-24T16:37:31;4.40;;;2.37;;
1837;SDS011;918;50.796;6.772;2022-10-24T16:39:57;5.80;;;2.40;;
1837;SDS011;918;50.796;6.772;2022-10-24T16:42:23;5.97;;;1.97;;
1837;SDS011;918;50.796;6.772;2022-10-24T16:44:49;3.60;;;1.80;;
1837;SDS011;918;50.796;6.772;2022-10-24T16:47:14;5.60;;;2.37;;
1837;SDS011;918;50.796;6.772;2022-10-24T16:49:40;6.00;;;1.80;;
1837;SDS011;918;50.796;6.772;2022-10-24T16:52:06;4.90;;;1.90;;
1837;SDS011;918;50.796;6.772;2022-10-24T16:54:31;3.67;;;1.67;;
1837;SDS011;918;50.796;6.772;2022-10-24T16:56:56;6.20;;;2.17;;
1837;SDS011;918;50.796;6.772;2022-10-24T16:59:22;5.43;;;1.93;;
1837;SDS011;918;50.796;6.772;2022-10-24T17:01:47;6.63;;;2.10;;
1837;SDS011;918;50.796;6.772;2022-10-24T17:04:12;4.60;;;1.93;;
1837;SDS011;918;50.796;6.772;2022-10-24T17:06:38;5.33;;;2.23;;
1837;SDS011;918;50.796;6.772;2022-10-24T17:09:03;5.90;;;2.47;;
1837;SDS011;918;50.796;6.772;2022-10-24T17:11:28;7.50;;;1.93;;
1837;SDS011;918;50.796;6.772;2022-10-24T17:13:53;5.53;;;2.70;;
1837;SDS011;918;50.796;6.772;2022-10-24T17:16:18;4.90;;;2.10;;
1837;SDS011;918;50.796;6.772;2022-10-24T17:18:44;6.00;;;3.17;;
1837;SDS011;918;50.796;6.772;2022-10-24T17:21:10;5.77;;;3.23;;
1837;SDS011;918;50.796;6.772;2022-10-24T17:23:37;5.07;;;2.83;;
1837;SDS011;918;50.796;6.772;2022-10-24T17:26:03;6.10;;;2.90;;
1837;SDS011;918;50.796;6.772;2022-10-24T17:28:28;7.10;;;2.93;;
1837;SDS011;918;50.796;6.772;2022-10-24T17:30:53;4.03;;;2.30;;
1837;SDS011;918;50.796;6.772;2022-10-24T17:33:19;6.00;;;2.70;;
1837;SDS011;918;50.796;6.772;2022-10-24T17:35:46;7.10;;;2.63;;
1837;SDS011;918;50.796;6.772;2022-10-24T17:40:42;4.90;;;2.47;;
1837;SDS011;918;50.796;6.772;2022-10-24T17:43:15;5.03;;;2.40;;
1837;SDS011;918;50.796;6.772;2022-10-24T17:45:45;4.23;;;2.13;;
1837;SDS011;918;50.796;6.772;2022-10-24T17:48:10;6.37;;;2.90;;
1837;SDS011;918;50.796;6.772;2022-10-24T17:50:36;6.57;;;2.43;;
1837;SDS011;918;50.796;6.772;2022-10-24T17:53:01;7.97;;;2.73;;